Time;durP1;ratioP1;P1;durP2;ratioP2;P2;SDS_P1;SDS_P2;PMS_P1;PMS_P2;Temp;Humidity;BMP_temperature;BMP_pressure;BME280_temperature;BME280_humidity;BME280_pressure;Samples;Min_cycle;Max_cycle;Signal;HPM_P1;HPM_P2
2023/09/02 00:01:19;;;;;;;1.40;0.83;;;22.40;52.10;;;;;;5134857;27;20179;-51
2023/09/02 00:03:45;;;;;;;1.13;0.87;;;22.40;52.00;;;;;;5134825;27;20281;-53
2023/09/02 00:06:11;;;;;;;1.43;0.83;;;22.40;52.00;;;;;;5134348;27;20169;-53
2023/09/02 00:08:36;;;;;;;1.40;0.80;;;22.30;52.00;;;;;;5134960;27;20171;-50
2023/09/02 00:11:02;;;;;;;1.30;0.93;;;22.30;52.00;;;;;;5134855;27;20177;-50
2023/09/02 00:13:28;;;;;;;1.10;0.40;;;22.30;51.90;;;;;;5134632;27;20167;-55
2023/09/02 00:15:53;;;;;;;1.30;0.80;;;22.30;51.90;;;;;;5134419;27;20502;-53
2023/09/02 00:18:19;;;;;;;1.17;0.60;;;22.30;51.90;;;;;;5134528;27;20186;-51
2023/09/02 00:20:45;;;;;;;1.50;1.00;;;22.30;51.80;;;;;;5134412;27;20171;-53
2023/09/02 00:23:12;;;;;;;1.10;0.60;;;22.20;51.60;;;;;;5134331;27;20198;-51
2023/09/02 00:25:37;;;;;;;1.77;1.10;;;22.20;51.60;;;;;;5134380;27;20174;-51
2023/09/02 00:28:03;;;;;;;1.13;0.60;;;22.20;51.60;;;;;;5134269;27;20844;-53
2023/09/02 00:30:29;;;;;;;2.00;1.20;;;22.20;51.70;;;;;;5134313;27;20166;-54
2023/09/02 00:32:55;;;;;;;2.10;1.33;;;22.10;51.70;;;;;;5134280;27;20407;-50
2023/09/02 00:35:21;;;;;;;1.37;1.00;;;22.10;51.80;;;;;;5133795;27;20186;-51
2023/09/02 00:37:47;;;;;;;1.10;0.60;;;22.10;51.80;;;;;;5134370;27;20428;-53
2023/09/02 00:40:17;;;;;;;1.67;0.73;;;22.10;51.70;;;;;;5134391;27;20590;-50
2023/09/02 00:42:44;;;;;;;1.20;0.67;;;22.10;51.60;;;;;;5134119;27;20448;-52
2023/09/02 00:45:10;;;;;;;1.53;1.07;;;22.00;51.60;;;;;;5133810;27;20902;-53
2023/09/02 00:47:36;;;;;;;1.87;0.90;;;22.10;51.70;;;;;;5133933;27;20416;-52
2023/09/02 00:50:02;;;;;;;1.20;0.70;;;22.00;51.70;;;;;;5133753;27;20970;-53
2023/09/02 00:52:31;;;;;;;1.30;0.90;;;22.00;51.90;;;;;;5133854;27;20487;-50
2023/09/02 00:54:57;;;;;;;1.43;0.67;;;22.00;52.00;;;;;;5133604;27;20406;-54
2023/09/02 00:57:23;;;;;;;1.10;0.60;;;22.00;52.20;;;;;;5133770;27;20507;-52
2023/09/02 00:59:50;;;;;;;1.47;0.80;;;22.00;52.20;;;;;;5133757;27;20528;-51
2023/09/02 01:02:16;;;;;;;2.13;1.43;;;22.00;52.20;;;;;;5133597;27;20392;-51
2023/09/02 01:04:42;;;;;;;2.03;0.70;;;22.00;52.20;;;;;;5133326;27;20392;-50
2023/09/02 01:07:08;;;;;;;1.50;1.00;;;22.00;52.20;;;;;;5133599;27;20507;-55
2023/09/02 01:09:34;;;;;;;2.40;1.43;;;22.10;52.30;;;;;;5133855;27;20404;-54
2023/09/02 01:12:00;;;;;;;2.03;0.87;;;22.10;52.20;;;;;;5133522;27;20393;-52
2023/09/02 01:14:26;;;;;;;2.13;0.83;;;22.10;52.20;;;;;;5133284;27;20528;-53
2023/09/02 01:16:51;;;;;;;2.37;1.00;;;22.10;52.30;;;;;;5133382;27;20182;-54
2023/09/02 01:19:20;;;;;;;1.87;1.17;;;22.10;53.00;;;;;;5133254;27;20489;-50
2023/09/02 01:22:03;;;;;;;2.40;1.53;;;22.10;52.30;;;;;;5133609;27;20170;-51
2023/09/02 01:25:05;;;;;;;1.20;0.80;;;22.10;52.30;;;;;;5133105;27;20411;-51
2023/09/02 01:27:39;;;;;;;1.20;0.80;;;22.10;52.30;;;;;;5114121;27;20605;-54
2023/09/02 01:30:14;;;;;;;1.40;0.70;;;22.10;52.30;;;;;;5133301;27;20451;-51
2023/09/02 01:32:42;;;;;;;1.30;0.73;;;22.10;52.30;;;;;;5133149;27;20402;-56
2023/09/02 01:35:10;;;;;;;3.20;1.37;;;22.10;52.30;;;;;;5132974;27;20451;-51
2023/09/02 01:37:44;;;;;;;1.40;0.83;;;22.10;52.30;;;;;;5133100;27;20520;-55
2023/09/02 01:40:21;;;;;;;1.50;0.50;;;22.20;52.20;;;;;;5133322;27;20404;-51
2023/09/02 01:42:52;;;;;;;1.47;0.70;;;22.20;52.30;;;;;;5133263;27;20439;-51
2023/09/02 01:45:19;;;;;;;1.50;0.80;;;22.20;52.40;;;;;;5132863;27;20387;-51
2023/09/02 01:47:50;;;;;;;1.37;0.77;;;22.20;52.50;;;;;;5133186;27;20424;-53
2023/09/02 01:50:18;;;;;;;1.10;0.77;;;22.20;52.60;;;;;;5133273;27;20405;-50
2023/09/02 01:52:45;;;;;;;1.10;0.67;;;22.20;52.70;;;;;;5133236;27;20542;-54
2023/09/02 01:55:11;;;;;;;1.10;0.50;;;22.20;52.70;;;;;;5132915;27;20401;-53
2023/09/02 01:57:38;;;;;;;1.20;0.73;;;22.20;52.60;;;;;;5132852;27;20472;-50
2023/09/02 02:00:08;;;;;;;1.87;1.07;;;22.20;52.60;;;;;;5132984;27;20405;-50
2023/09/02 02:02:36;;;;;;;1.10;0.53;;;22.20;52.50;;;;;;5133070;27;20794;-54
2023/09/02 02:05:06;;;;;;;1.47;1.07;;;22.20;52.50;;;;;;5133296;27;20395;-49
2023/09/02 02:07:35;;;;;;;1.20;0.80;;;22.20;52.60;;;;;;5136998;27;20425;-52
2023/09/02 02:10:04;;;;;;;1.20;0.50;;;22.20;52.60;;;;;;5137087;27;20411;-54
2023/09/02 02:12:31;;;;;;;1.40;0.80;;;22.20;52.70;;;;;;5137241;27;20408;-54
2023/09/02 02:14:57;;;;;;;1.00;0.40;;;22.20;52.80;;;;;;5136762;27;20929;-50
2023/09/02 02:17:22;;;;;;;1.10;0.50;;;22.20;52.80;;;;;;5136697;27;20420;-51
2023/09/02 02:19:48;;;;;;;1.00;0.53;;;22.20;53.00;;;;;;5136893;27;20166;-49
2023/09/02 02:22:14;;;;;;;1.40;0.70;;;22.20;53.00;;;;;;5137005;27;20219;-52
2023/09/02 02:24:40;;;;;;;1.97;0.70;;;22.20;53.00;;;;;;5136886;27;20392;-50
2023/09/02 02:27:06;;;;;;;1.90;1.03;;;22.20;52.90;;;;;;5137035;27;20182;-50
2023/09/02 02:29:31;;;;;;;1.10;0.60;;;22.20;52.90;;;;;;5136704;27;20420;-52
2023/09/02 02:31:57;;;;;;;1.30;0.70;;;22.20;53.00;;;;;;5136563;27;20163;-50
2023/09/02 02:34:25;;;;;;;1.17;0.53;;;22.20;53.00;;;;;;5136230;27;20169;-50
2023/09/02 02:36:51;;;;;;;1.40;0.70;;;22.20;52.90;;;;;;5136548;27;20247;-53
2023/09/02 02:39:18;;;;;;;1.10;0.70;;;22.20;52.90;;;;;;5136712;27;20400;-54
2023/09/02 02:41:43;;;;;;;4.10;1.10;;;22.20;53.20;;;;;;5136482;27;20212;-50
2023/09/02 02:44:09;;;;;;;1.50;0.70;;;22.20;53.10;;;;;;5134873;27;20867;-50
2023/09/02 02:46:35;;;;;;;1.27;0.63;;;22.20;53.10;;;;;;5136191;27;20193;-51
2023/09/02 02:49:01;;;;;;;1.00;0.43;;;22.20;53.10;;;;;;5136653;27;20170;-51
2023/09/02 02:51:26;;;;;;;2.03;1.83;;;22.20;52.90;;;;;;5136528;27;20167;-55
2023/09/02 02:53:52;;;;;;;1.30;1.00;;;22.20;52.80;;;;;;5136463;27;20170;-53
2023/09/02 02:56:19;;;;;;;2.40;1.23;;;22.20;52.60;;;;;;5135854;27;20182;-52
2023/09/02 02:58:44;;;;;;;1.20;0.70;;;22.20;52.50;;;;;;5136218;27;20648;-53
2023/09/02 03:01:11;;;;;;;1.87;0.87;;;22.20;52.40;;;;;;5136020;27;20534;-50
2023/09/02 03:03:37;;;;;;;1.40;0.83;;;22.20;52.30;;;;;;5136132;27;20202;-54
2023/09/02 03:06:04;;;;;;;1.07;0.53;;;22.10;52.20;;;;;;5136011;27;20419;-51
2023/09/02 03:08:30;;;;;;;1.67;0.87;;;22.10;52.10;;;;;;5135840;27;20823;-52
2023/09/02 03:10:58;;;;;;;1.30;0.90;;;22.00;52.10;;;;;;5135931;27;20396;-53
2023/09/02 03:13:24;;;;;;;1.20;0.60;;;22.00;52.00;;;;;;5135739;27;20410;-53
2023/09/02 03:15:53;;;;;;;2.03;0.87;;;22.00;52.20;;;;;;5135255;27;20460;-52
2023/09/02 03:18:20;;;;;;;1.20;0.70;;;21.90;51.90;;;;;;5134624;27;20851;-53
2023/09/02 03:20:46;;;;;;;1.63;1.00;;;21.90;52.00;;;;;;5134411;27;20419;-52
2023/09/02 03:23:12;;;;;;;2.20;0.83;;;21.90;52.00;;;;;;5135689;27;20810;-50
2023/09/02 03:25:37;;;;;;;1.43;1.33;;;21.90;51.90;;;;;;5135482;27;20162;-54
2023/09/02 03:28:04;;;;;;;1.50;0.87;;;21.90;51.90;;;;;;5135520;27;20511;-51
2023/09/02 03:30:30;;;;;;;1.90;0.93;;;21.90;52.00;;;;;;5135354;27;20171;-50
2023/09/02 03:32:56;;;;;;;2.37;0.60;;;21.80;52.00;;;;;;5135501;27;20415;-52
2023/09/02 03:35:22;;;;;;;1.10;0.70;;;21.80;52.10;;;;;;5135064;27;20436;-50
2023/09/02 03:37:48;;;;;;;1.10;0.47;;;21.80;52.20;;;;;;5135461;27;20431;-51
2023/09/02 03:40:15;;;;;;;1.10;0.63;;;21.80;52.30;;;;;;5135584;27;20412;-52
2023/09/02 03:42:41;;;;;;;1.20;0.63;;;21.80;52.40;;;;;;5135305;27;20448;-50
2023/09/02 03:45:09;;;;;;;1.30;0.77;;;21.80;52.40;;;;;;5135000;27;20772;-50
2023/09/02 03:47:35;;;;;;;1.73;1.10;;;21.80;52.40;;;;;;5135048;27;20431;-52
2023/09/02 03:50:02;;;;;;;1.83;1.27;;;21.90;52.40;;;;;;5135475;27;20457;-54
2023/09/02 03:52:28;;;;;;;1.17;0.80;;;21.90;52.50;;;;;;5135268;27;20440;-51
2023/09/02 03:54:54;;;;;;;1.33;0.60;;;21.90;52.40;;;;;;5135137;27;20790;-50
2023/09/02 03:57:20;;;;;;;2.90;1.37;;;21.90;52.50;;;;;;5134935;27;20541;-52
2023/09/02 03:59:45;;;;;;;1.20;0.80;;;21.80;52.30;;;;;;5134834;27;20181;-53
2023/09/02 04:02:11;;;;;;;1.77;1.33;;;21.90;52.40;;;;;;5134856;27;20246;-50
2023/09/02 04:04:37;;;;;;;1.70;1.13;;;21.90;52.30;;;;;;5134623;27;20171;-52
2023/09/02 04:07:03;;;;;;;3.07;1.30;;;21.90;52.20;;;;;;5135043;27;20187;-54
2023/09/02 04:09:28;;;;;;;1.50;1.10;;;21.80;52.00;;;;;;5134842;27;20270;-51
2023/09/02 04:11:54;;;;;;;1.50;1.10;;;21.80;52.00;;;;;;5134968;27;20419;-53
2023/09/02 04:14:20;;;;;;;1.10;0.80;;;21.70;52.10;;;;;;5134343;27;20818;-52
2023/09/02 04:16:46;;;;;;;1.33;0.53;;;21.70;52.20;;;;;;5134584;27;20194;-50
2023/09/02 04:19:12;;;;;;;3.10;0.90;;;21.70;52.20;;;;;;5134662;27;20167;-50
2023/09/02 04:21:37;;;;;;;1.87;0.57;;;21.70;52.20;;;;;;5134502;27;20181;-53
2023/09/02 04:24:03;;;;;;;1.47;1.20;;;21.60;52.10;;;;;;5134363;27;20194;-50
2023/09/02 04:26:29;;;;;;;1.40;0.80;;;21.70;52.30;;;;;;5134191;27;20159;-50
2023/09/02 04:28:55;;;;;;;2.13;0.90;;;21.70;52.20;;;;;;5133885;27;20921;-53
2023/09/02 04:31:22;;;;;;;1.37;0.87;;;21.60;52.30;;;;;;5134514;27;20177;-51
2023/09/02 04:33:48;;;;;;;1.33;0.80;;;21.60;52.90;;;;;;5134256;27;20533;-55
2023/09/02 04:36:14;;;;;;;1.67;0.80;;;21.60;53.00;;;;;;5133892;27;20420;-51
2023/09/02 04:38:40;;;;;;;1.60;1.10;;;21.60;53.00;;;;;;5134144;27;20407;-50
2023/09/02 04:41:08;;;;;;;1.40;0.70;;;21.70;53.00;;;;;;5134113;27;20167;-57
2023/09/02 04:43:34;;;;;;;1.07;0.40;;;21.70;53.00;;;;;;5133892;27;20252;-49
2023/09/02 04:46:02;;;;;;;1.47;1.03;;;21.70;53.10;;;;;;5133856;27;20397;-51
2023/09/02 04:48:28;;;;;;;1.80;0.80;;;21.70;53.10;;;;;;5133851;27;20949;-56
2023/09/02 04:50:54;;;;;;;1.20;0.70;;;21.70;53.20;;;;;;5134062;27;20430;-49
2023/09/02 04:53:20;;;;;;;1.30;0.67;;;21.80;53.10;;;;;;5133888;27;20821;-54
2023/09/02 04:55:48;;;;;;;2.03;1.73;;;21.80;53.20;;;;;;5133641;27;20404;-51
2023/09/02 04:58:14;;;;;;;2.00;1.00;;;21.80;53.30;;;;;;5132442;27;20942;-51
2023/09/02 05:00:40;;;;;;;2.40;0.97;;;21.80;53.50;;;;;;5134050;27;20492;-51
2023/09/02 05:03:08;;;;;;;1.63;0.93;;;21.80;53.50;;;;;;5133611;27;20451;-51
2023/09/02 05:05:34;;;;;;;1.80;1.10;;;21.80;53.50;;;;;;5133694;27;20790;-51
2023/09/02 05:08:00;;;;;;;1.77;1.17;;;21.80;53.60;;;;;;5133483;27;20912;-51
2023/09/02 05:10:26;;;;;;;1.10;0.67;;;21.90;53.60;;;;;;5133790;27;20465;-50
2023/09/02 05:12:52;;;;;;;1.27;0.53;;;21.90;53.60;;;;;;5133554;27;20407;-51
2023/09/02 05:15:18;;;;;;;2.07;1.00;;;21.90;53.60;;;;;;5133268;27;20443;-55
2023/09/02 05:17:44;;;;;;;3.30;1.40;;;21.90;53.50;;;;;;5133712;27;20495;-50
2023/09/02 05:20:10;;;;;;;1.47;0.83;;;21.90;53.50;;;;;;5133467;27;20511;-54
2023/09/02 05:22:36;;;;;;;1.10;0.60;;;21.90;53.50;;;;;;5133316;27;20480;-48
2023/09/02 05:25:03;;;;;;;1.70;0.93;;;22.00;53.50;;;;;;5133015;27;20396;-51
2023/09/02 05:27:30;;;;;;;1.40;0.90;;;22.00;53.50;;;;;;5133365;27;20425;-54
2023/09/02 05:29:56;;;;;;;2.97;0.93;;;22.00;53.50;;;;;;5133360;27;20403;-49
2023/09/02 05:32:21;;;;;;;2.03;0.60;;;22.10;53.50;;;;;;5133196;27;20396;-50
2023/09/02 05:34:47;;;;;;;1.67;0.90;;;22.00;53.40;;;;;;5133063;27;20444;-54
2023/09/02 05:37:13;;;;;;;1.23;0.60;;;22.10;53.50;;;;;;5133188;27;20508;-50
2023/09/02 05:39:39;;;;;;;1.10;0.60;;;22.10;53.50;;;;;;5132302;27;20159;-50
2023/09/02 05:42:05;;;;;;;2.50;1.00;;;22.10;53.40;;;;;;5133014;27;20434;-54
2023/09/02 05:44:34;;;;;;;1.20;0.60;;;22.10;53.60;;;;;;5132754;27;20487;-49
2023/09/02 05:47:01;;;;;;;1.50;0.90;;;22.10;53.60;;;;;;5133266;27;20432;-50
2023/09/02 05:49:26;;;;;;;1.07;0.43;;;22.10;53.60;;;;;;5133101;27;20409;-54
2023/09/02 05:51:52;;;;;;;2.10;0.73;;;22.10;53.70;;;;;;5133279;27;20464;-50
2023/09/02 05:54:18;;;;;;;1.70;0.90;;;22.10;53.60;;;;;;5132676;27;20640;-50
2023/09/02 05:56:47;;;;;;;2.20;1.27;;;22.10;53.60;;;;;;5132803;27;20190;-51
2023/09/02 05:59:13;;;;;;;2.70;1.47;;;22.10;53.60;;;;;;5132927;27;20213;-55
2023/09/02 06:01:38;;;;;;;1.93;0.80;;;22.10;53.60;;;;;;5132908;27;20897;-49
2023/09/02 06:04:04;;;;;;;1.97;0.70;;;22.10;53.60;;;;;;5132742;27;20500;-51
2023/09/02 06:06:30;;;;;;;1.23;0.77;;;22.10;53.60;;;;;;5132575;28;20647;-54
2023/09/02 06:08:56;;;;;;;3.53;1.40;;;22.10;53.80;;;;;;5132805;28;20432;-50
2023/09/02 06:11:22;;;;;;;2.50;1.40;;;22.10;53.80;;;;;;5132693;28;20194;-54
2023/09/02 06:13:47;;;;;;;1.87;0.73;;;22.10;53.90;;;;;;5132832;28;20177;-51
2023/09/02 06:16:13;;;;;;;1.60;1.03;;;22.10;53.80;;;;;;5132746;27;20517;-50
2023/09/02 06:18:39;;;;;;;2.33;1.00;;;22.20;53.90;;;;;;5132746;28;20167;-51
2023/09/02 06:21:09;;;;;;;2.40;0.97;;;22.20;53.70;;;;;;5132739;27;20171;-57
2023/09/02 06:23:35;;;;;;;1.40;1.03;;;22.20;53.80;;;;;;5132562;27;20183;-50
2023/09/02 06:26:01;;;;;;;1.47;0.60;;;22.20;53.80;;;;;;5132416;27;20534;-56
2023/09/02 06:28:28;;;;;;;2.60;1.20;;;22.30;54.00;;;;;;5132606;27;20656;-49
2023/09/02 06:30:54;;;;;;;1.50;1.10;;;22.20;53.90;;;;;;5132654;27;20897;-52
2023/09/02 06:33:22;;;;;;;2.60;1.13;;;22.30;54.10;;;;;;5132590;27;20417;-54
2023/09/02 06:35:51;;;;;;;1.13;0.70;;;22.30;54.00;;;;;;5132186;27;20428;-50
2023/09/02 06:38:17;;;;;;;1.20;0.50;;;22.30;53.90;;;;;;5132760;27;20416;-51
2023/09/02 06:40:43;;;;;;;1.90;1.03;;;22.40;53.90;;;;;;5132514;27;20424;-55
2023/09/02 06:43:09;;;;;;;2.27;1.33;;;22.30;54.00;;;;;;5132467;27;20444;-51
2023/09/02 06:45:36;;;;;;;2.50;1.43;;;22.40;53.90;;;;;;5132229;27;20432;-56
2023/09/02 06:48:02;;;;;;;1.77;1.40;;;22.30;53.90;;;;;;5132371;27;20516;-50
2023/09/02 06:50:28;;;;;;;1.43;0.97;;;22.40;53.90;;;;;;5132349;27;20246;-51
2023/09/02 06:52:54;;;;;;;1.40;1.00;;;22.40;54.00;;;;;;5136087;27;20404;-50
2023/09/02 06:55:19;;;;;;;2.53;1.30;;;22.40;54.10;;;;;;5136192;27;20923;-50
2023/09/02 06:57:45;;;;;;;1.20;0.70;;;22.40;53.90;;;;;;5136436;27;20706;-52
2023/09/02 07:00:12;;;;;;;1.40;0.90;;;22.40;54.00;;;;;;5136236;27;20656;-52
2023/09/02 07:02:38;;;;;;;1.33;0.77;;;22.50;54.00;;;;;;5135877;27;20198;-51
2023/09/02 07:05:04;;;;;;;2.70;1.80;;;22.50;54.00;;;;;;5135726;27;20411;-50
2023/09/02 07:07:30;;;;;;;2.17;1.20;;;22.50;53.90;;;;;;5135913;27;20515;-54
2023/09/02 07:09:56;;;;;;;1.50;0.97;;;22.60;53.90;;;;;;5135916;27;20246;-51
2023/09/02 07:12:22;;;;;;;2.27;1.47;;;22.60;53.80;;;;;;5135841;27;20704;-51
2023/09/02 07:14:48;;;;;;;1.63;1.00;;;22.60;53.90;;;;;;5135596;27;20405;-54
2023/09/02 07:17:13;;;;;;;1.40;0.90;;;22.60;53.70;;;;;;5135749;27;20206;-51
2023/09/02 07:19:39;;;;;;;1.47;1.00;;;22.50;53.80;;;;;;5135688;27;20560;-49
2023/09/02 07:22:05;;;;;;;2.33;1.07;;;22.50;53.90;;;;;;5136015;27;20171;-54
2023/09/02 07:24:31;;;;;;;2.30;0.97;;;22.50;54.10;;;;;;5135520;27;20288;-49
2023/09/02 07:26:56;;;;;;;1.30;0.83;;;22.60;54.00;;;;;;5135723;27;20206;-51
2023/09/02 07:29:22;;;;;;;2.77;1.13;;;22.60;54.10;;;;;;5135647;27;20256;-53
2023/09/02 07:31:48;;;;;;;2.33;1.70;;;22.60;54.10;;;;;;5135572;27;20211;-50
2023/09/02 07:34:14;;;;;;;2.27;1.47;;;22.60;54.10;;;;;;5135109;27;20796;-51
2023/09/02 07:36:41;;;;;;;2.90;1.20;;;22.70;54.10;;;;;;5135646;27;20281;-49
2023/09/02 07:39:07;;;;;;;1.50;0.83;;;22.70;54.10;;;;;;5135494;27;20418;-50
2023/09/02 07:41:32;;;;;;;1.37;0.50;;;22.70;54.10;;;;;;5135452;27;20412;-52
2023/09/02 07:43:58;;;;;;;1.20;0.63;;;22.70;54.20;;;;;;5135301;27;20222;-52
2023/09/02 07:46:24;;;;;;;2.00;1.33;;;22.80;54.10;;;;;;5133798;27;20175;-49
2023/09/02 07:48:50;;;;;;;1.17;0.50;;;22.80;54.10;;;;;;5135084;27;20224;-52
2023/09/02 07:51:17;;;;;;;1.10;0.60;;;22.80;54.10;;;;;;5135169;27;20780;-50
2023/09/02 07:53:44;;;;;;;1.80;0.90;;;22.80;54.20;;;;;;5133807;27;20469;-50
2023/09/02 07:56:10;;;;;;;1.80;1.40;;;22.80;54.30;;;;;;5134947;27;20400;-51
2023/09/02 07:58:36;;;;;;;1.30;0.73;;;22.80;54.00;;;;;;5134952;27;20496;-50
2023/09/02 08:01:02;;;;;;;1.60;0.87;;;22.90;53.90;;;;;;5134981;27;20412;-55
2023/09/02 08:03:28;;;;;;;1.50;0.73;;;22.80;53.80;;;;;;5133839;27;20210;-50
2023/09/02 08:05:54;;;;;;;1.20;0.67;;;22.90;53.90;;;;;;5134712;27;20403;-55
2023/09/02 08:08:20;;;;;;;1.73;1.40;;;22.90;53.90;;;;;;5134994;27;20420;-53
2023/09/02 08:10:46;;;;;;;1.40;0.93;;;22.90;53.80;;;;;;5134814;27;20407;-49
2023/09/02 08:13:12;;;;;;;1.43;1.03;;;22.90;53.80;;;;;;5135027;27;20450;-52
2023/09/02 08:15:39;;;;;;;1.27;0.77;;;23.00;53.70;;;;;;5134427;27;20773;-51
2023/09/02 08:18:06;;;;;;;1.20;0.70;;;23.00;53.30;;;;;;5134571;27;20419;-50
2023/09/02 08:20:32;;;;;;;1.10;0.60;;;23.00;53.10;;;;;;5134567;27;20412;-52
2023/09/02 08:22:58;;;;;;;1.30;0.60;;;23.00;53.20;;;;;;5134695;27;20542;-51
2023/09/02 08:25:24;;;;;;;1.57;0.97;;;23.00;53.30;;;;;;5134512;27;20412;-50
2023/09/02 08:27:50;;;;;;;1.63;1.03;;;23.10;53.50;;;;;;5134330;27;20421;-56
2023/09/02 08:30:16;;;;;;;1.10;0.70;;;23.10;53.40;;;;;;5134666;27;20423;-55
2023/09/02 08:32:43;;;;;;;2.17;1.37;;;23.10;53.40;;;;;;5134266;27;20414;-50
2023/09/02 08:35:12;;;;;;;1.50;0.67;;;23.20;53.80;;;;;;5133987;27;20432;-50
2023/09/02 08:37:38;;;;;;;1.87;0.93;;;23.20;53.40;;;;;;5134106;27;20444;-50
2023/09/02 08:40:04;;;;;;;2.10;1.13;;;23.30;53.40;;;;;;5134323;27;20457;-50
2023/09/02 08:42:33;;;;;;;1.63;0.77;;;23.30;53.30;;;;;;5134048;27;20412;-55
2023/09/02 08:45:00;;;;;;;1.80;1.47;;;23.30;53.00;;;;;;5133732;27;20819;-52
2023/09/02 08:47:30;;;;;;;1.70;0.90;;;23.40;53.70;;;;;;5133908;27;20423;-49
2023/09/02 08:49:58;;;;;;;1.47;1.13;;;23.40;52.90;;;;;;5134078;27;20449;-51
2023/09/02 08:52:25;;;;;;;1.10;0.70;;;23.50;53.00;;;;;;5133879;27;20400;-53
2023/09/02 08:54:52;;;;;;;1.47;0.60;;;23.60;52.90;;;;;;5133773;27;20408;-50
2023/09/02 08:57:19;;;;;;;1.20;0.77;;;23.60;53.00;;;;;;5133795;27;20436;-51
2023/09/02 08:59:45;;;;;;;2.37;1.10;;;23.60;52.90;;;;;;5133664;27;20932;-51
2023/09/02 09:02:12;;;;;;;1.47;0.90;;;23.70;53.00;;;;;;5133955;27;20436;-57
2023/09/02 09:04:39;;;;;;;2.90;1.10;;;23.70;52.70;;;;;;5133367;27;20210;-49
2023/09/02 09:07:05;;;;;;;1.40;1.03;;;23.80;52.60;;;;;;5133638;27;20424;-50
2023/09/02 09:09:39;;;;;;;2.60;0.80;;;23.80;52.40;;;;;;5133664;27;20495;-49
2023/09/02 09:12:08;;;;;;;1.40;0.77;;;23.90;52.60;;;;;;5133489;27;20447;-54
2023/09/02 09:14:37;;;;;;;2.33;1.20;;;23.90;52.50;;;;;;5133235;27;20921;-53
2023/09/02 09:17:03;;;;;;;1.30;0.50;;;23.90;52.50;;;;;;5133490;27;20427;-51
2023/09/02 09:19:30;;;;;;;1.43;0.90;;;24.00;52.50;;;;;;5133437;27;20540;-49
2023/09/02 09:21:57;;;;;;;1.17;0.77;;;24.10;52.30;;;;;;5133701;27;20430;-56
2023/09/02 09:24:23;;;;;;;1.30;0.87;;;24.10;52.30;;;;;;5133132;27;20833;-54
2023/09/02 09:26:49;;;;;;;1.70;0.80;;;24.10;52.40;;;;;;5133158;27;20424;-50
2023/09/02 09:29:17;;;;;;;2.30;0.90;;;24.20;52.40;;;;;;5133284;27;20400;-51
2023/09/02 09:31:44;;;;;;;2.03;1.23;;;24.20;52.00;;;;;;5133268;27;20408;-55
2023/09/02 09:34:10;;;;;;;2.90;1.00;;;24.30;52.10;;;;;;5132968;27;20986;-51
2023/09/02 09:36:36;;;;;;;3.00;1.03;;;24.30;51.80;;;;;;5133083;27;20489;-51
2023/09/02 09:39:04;;;;;;;1.27;0.77;;;24.30;51.30;;;;;;5133085;27;20400;-54
2023/09/02 09:41:30;;;;;;;1.47;0.80;;;24.20;51.50;;;;;;5133072;27;20415;-51
2023/09/02 09:44:22;;;;;;;1.30;0.83;;;24.30;51.80;;;;;;5132909;27;20452;-50
2023/09/02 09:46:52;;;;;;;1.30;0.80;;;24.30;51.60;;;;;;5131832;27;20801;-56
2023/09/02 09:49:21;;;;;;;1.90;1.07;;;24.30;51.40;;;;;;5133071;27;20415;-55
2023/09/02 09:51:47;;;;;;;1.80;0.87;;;24.40;51.40;;;;;;5132898;27;20404;-50
2023/09/02 09:54:13;;;;;;;1.70;0.80;;;24.40;51.40;;;;;;5132742;27;20399;-52
2023/09/02 09:56:43;;;;;;;1.40;1.00;;;24.50;51.70;;;;;;5132856;27;20194;-55
2023/09/02 09:59:08;;;;;;;1.40;0.70;;;24.50;51.60;;;;;;5133259;27;20216;-50
2023/09/02 10:01:35;;;;;;;2.23;1.23;;;24.50;51.00;;;;;;5132950;27;20408;-50
2023/09/02 10:04:07;;;;;;;2.60;1.13;;;24.50;50.90;;;;;;5132756;27;20443;-54
2023/09/02 10:06:40;;;;;;;1.40;1.10;;;24.60;51.30;;;;;;5132990;27;20472;-51
2023/09/02 10:09:06;;;;;;;2.27;0.90;;;24.70;51.20;;;;;;5132833;27;20433;-49
2023/09/02 10:11:31;;;;;;;1.73;1.10;;;24.70;50.30;;;;;;5132838;27;20487;-57
2023/09/02 10:13:59;;;;;;;1.47;0.80;;;24.70;50.60;;;;;;5132759;28;20924;-53
2023/09/02 10:16:25;;;;;;;1.33;0.83;;;24.70;50.60;;;;;;5132530;27;20692;-53
2023/09/02 10:18:51;;;;;;;2.83;1.00;;;24.80;49.50;;;;;;5132696;27;20412;-51
2023/09/02 10:21:21;;;;;;;2.17;0.90;;;24.80;49.40;;;;;;5132727;27;20487;-52
2023/09/02 10:23:58;;;;;;;1.10;0.40;;;24.80;49.90;;;;;;5132883;27;20259;-54
2023/09/02 10:26:32;;;;;;;1.33;0.80;;;24.90;49.80;;;;;;5133753;27;20889;-50
2023/09/02 10:29:00;;;;;;;1.40;0.93;;;25.00;49.80;;;;;;5136829;27;20404;-50
2023/09/02 10:31:33;;;;;;;1.30;0.53;;;25.00;49.50;;;;;;5136587;27;20494;-54
2023/09/02 10:34:34;;;;;;;3.07;1.00;;;25.00;49.40;;;;;;5136972;27;20400;-52
2023/09/02 10:37:08;;;;;;;2.33;0.80;;;25.10;49.30;;;;;;5117250;27;20434;-52
2023/09/02 10:39:54;;;;;;;2.20;1.00;;;25.00;49.20;;;;;;5136580;27;20396;-54
2023/09/02 10:42:21;;;;;;;1.00;0.43;;;25.00;49.00;;;;;;5136584;27;20392;-52
2023/09/02 10:44:47;;;;;;;1.57;1.00;;;24.90;48.80;;;;;;5136533;27;20412;-56
2023/09/02 10:47:13;;;;;;;1.03;0.50;;;24.80;49.00;;;;;;5136395;27;21112;-50
2023/09/02 10:49:40;;;;;;;1.00;0.47;;;24.80;49.20;;;;;;5136428;27;20445;-55
2023/09/02 10:52:07;;;;;;;1.10;0.50;;;24.80;49.30;;;;;;5136191;27;20396;-54
2023/09/02 10:55:02;;;;;;;1.87;1.00;;;24.80;49.40;;;;;;5136094;27;20482;-51
2023/09/02 10:57:31;;;;;;;2.23;0.97;;;24.80;49.60;;;;;;5136143;27;20416;-51
2023/09/02 11:00:16;;;;;;;1.20;0.60;;;24.80;49.70;;;;;;5136442;27;20400;-55
2023/09/02 11:02:42;;;;;;;1.60;0.80;;;24.90;49.60;;;;;;5135966;27;20470;-51
2023/09/02 11:05:09;;;;;;;1.20;0.50;;;24.90;49.50;;;;;;5135813;27;20396;-55
2023/09/02 11:07:36;;;;;;;1.70;1.10;;;25.00;49.50;;;;;;5135905;27;20416;-56
2023/09/02 11:10:02;;;;;;;1.30;0.70;;;25.00;49.20;;;;;;5136076;27;20483;-51
2023/09/02 11:12:29;;;;;;;1.57;0.73;;;25.10;48.50;;;;;;5135830;27;20399;-55
2023/09/02 11:15:07;;;;;;;1.30;0.90;;;25.20;48.60;;;;;;5135635;27;20921;-55
2023/09/02 11:17:33;;;;;;;1.80;0.80;;;25.30;48.30;;;;;;5135748;27;20514;-56
2023/09/02 11:20:04;;;;;;;1.40;0.93;;;25.30;48.20;;;;;;5135677;27;20438;-51
2023/09/02 11:22:56;;;;;;;1.50;1.10;;;25.40;48.20;;;;;;5135822;27;20972;-52
2023/09/02 11:25:37;;;;;;;1.80;1.03;;;25.50;48.20;;;;;;5135705;27;20407;-51
2023/09/02 11:28:07;;;;;;;1.30;0.70;;;25.70;47.80;;;;;;5135847;27;20447;-55
2023/09/02 11:30:36;;;;;;;1.20;0.50;;;25.70;47.60;;;;;;5135510;27;20456;-50
2023/09/02 11:33:02;;;;;;;1.50;0.93;;;25.80;47.50;;;;;;5135800;27;20428;-51
2023/09/02 11:35:33;;;;;;;1.70;0.60;;;25.80;46.50;;;;;;5135216;27;20473;-54
2023/09/02 11:38:00;;;;;;;3.10;1.67;;;25.80;43.60;;;;;;5134362;27;20573;-50
2023/09/02 11:40:27;;;;;;;1.70;1.10;;;25.80;44.00;;;;;;5134183;27;20430;-51
2023/09/02 11:43:01;;;;;;;1.43;0.97;;;25.80;44.20;;;;;;5135175;27;20526;-56
2023/09/02 11:45:33;;;;;;;1.30;0.53;;;25.80;43.90;;;;;;5135122;27;20406;-50
2023/09/02 11:47:59;;;;;;;4.60;0.53;;;25.90;44.60;;;;;;5135234;27;20820;-51
2023/09/02 11:50:25;;;;;;;1.53;0.70;;;25.90;44.80;;;;;;5135099;27;20738;-54
2023/09/02 11:52:56;;;;;;;1.83;1.13;;;25.90;44.00;;;;;;5135245;27;20412;-50
2023/09/02 11:55:22;;;;;;;1.17;0.73;;;25.80;44.50;;;;;;5135041;27;20404;-50
2023/09/02 11:57:48;;;;;;;2.07;0.97;;;25.80;44.50;;;;;;5134999;27;20840;-55
2023/09/02 12:00:16;;;;;;;1.37;0.73;;;25.80;44.90;;;;;;5135290;27;20462;-51
2023/09/02 12:02:43;;;;;;;1.57;0.57;;;25.70;44.30;;;;;;5134932;27;20404;-49
2023/09/02 12:05:09;;;;;;;1.20;0.50;;;25.70;44.80;;;;;;5134629;27;20396;-54
2023/09/02 12:07:36;;;;;;;1.83;0.97;;;25.70;45.20;;;;;;5134781;27;20507;-52
2023/09/02 12:10:12;;;;;;;1.73;0.80;;;25.80;45.50;;;;;;5134859;27;20939;-49
2023/09/02 12:12:44;;;;;;;1.50;1.10;;;25.70;45.40;;;;;;5134752;27;20449;-54
2023/09/02 12:15:17;;;;;;;1.60;0.90;;;25.80;45.40;;;;;;5134833;27;20503;-49
2023/09/02 12:17:45;;;;;;;1.40;0.63;;;25.80;45.20;;;;;;5134553;27;20442;-53
2023/09/02 12:20:12;;;;;;;1.80;1.20;;;25.70;44.00;;;;;;5134653;27;20392;-56
2023/09/02 12:22:39;;;;;;;2.53;1.70;;;25.80;44.60;;;;;;5134673;27;20396;-49
2023/09/02 12:25:33;;;;;;;1.80;1.00;;;25.80;44.90;;;;;;5134438;27;20397;-50
2023/09/02 12:28:14;;;;;;;1.30;0.90;;;25.80;44.70;;;;;;5131874;27;20436;-57
2023/09/02 12:30:40;;;;;;;2.63;1.90;;;25.80;42.80;;;;;;5134449;27;20388;-53
2023/09/02 12:33:07;;;;;;;2.73;1.20;;;25.80;44.10;;;;;;5134591;27;20437;-51
2023/09/02 12:35:33;;;;;;;1.30;0.60;;;25.90;44.50;;;;;;5134051;27;20432;-56
2023/09/02 12:38:04;;;;;;;2.20;1.40;;;26.10;45.10;;;;;;5132906;27;21009;-50
2023/09/02 12:40:30;;;;;;;1.40;0.70;;;26.10;43.60;;;;;;5134490;27;20423;-49
2023/09/02 12:42:56;;;;;;;1.60;1.20;;;26.10;43.10;;;;;;5134311;27;20535;-56
2023/09/02 12:45:30;;;;;;;1.30;0.83;;;26.20;44.30;;;;;;5133856;27;20400;-51
2023/09/02 12:47:57;;;;;;;2.23;1.40;;;26.20;41.50;;;;;;5134058;27;20423;-51
2023/09/02 12:50:24;;;;;;;2.00;0.87;;;26.20;43.10;;;;;;5133740;27;20404;-53